createdAt,value
2022-10-31T00:01:22.471Z,100515.88
2022-10-31T00:03:50.111Z,100504.03
2022-10-31T00:06:19.168Z,100507.47
2022-10-31T00:08:47.030Z,100498.38
2022-10-31T00:11:16.394Z,100503.94
2022-10-31T00:13:44.304Z,100505.88
2022-10-31T00:16:16.200Z,100511.66
2022-10-31T00:18:44.296Z,100511.72
2022-10-31T00:21:12.431Z,100514.81
2022-10-31T00:23:40.309Z,100510.91
2022-10-31T00:26:08.916Z,100506.44
2022-10-31T00:28:38.492Z,100509.22
2022-10-31T00:31:07.985Z,100508.13
2022-10-31T00:33:39.309Z,100521.28
2022-10-31T00:36:08.196Z,100515.19
2022-10-31T00:38:35.940Z,100514.44
2022-10-31T00:41:04.069Z,100513.06
2022-10-31T00:43:32.832Z,100510.53
2022-10-31T00:46:02.359Z,100521.88
2022-10-31T00:48:30.492Z,100525.41
2022-10-31T00:50:58.795Z,100523.16
2022-10-31T00:53:26.615Z,100518.88
2022-10-31T00:55:54.350Z,100512.81
2022-10-31T00:58:23.500Z,100511.28
2022-10-31T01:00:55.996Z,100515.50
2022-10-31T01:03:27.135Z,100515.53
2022-10-31T01:05:59.353Z,100523.91
2022-10-31T01:08:27.495Z,100533.91
2022-10-31T01:11:02.409Z,100537.25
2022-10-31T01:13:30.182Z,100526.84
2022-10-31T01:15:59.351Z,100536.22
2022-10-31T01:18:28.438Z,100533.34
2022-10-31T01:21:00.923Z,100537.81
2022-10-31T01:23:28.958Z,100526.47
2022-10-31T01:26:04.269Z,100535.16
2022-10-31T01:28:33.691Z,100534.47
2022-10-31T01:31:06.939Z,100529.94
2022-10-31T01:33:37.591Z,100526.25
2022-10-31T01:36:13.010Z,100529.38
2022-10-31T01:38:40.738Z,100530.41
2022-10-31T01:41:08.451Z,100528.53
2022-10-31T01:43:46.553Z,100524.28
2022-10-31T01:46:14.673Z,100520.81
2022-10-31T01:48:44.173Z,100526.47
2022-10-31T01:51:13.611Z,100525.72
2022-10-31T01:53:41.813Z,100520.81
2022-10-31T01:56:09.821Z,100516.16
2022-10-31T01:58:38.905Z,100513.66
2022-10-31T02:01:08.073Z,100508.94
2022-10-31T02:03:37.446Z,100498.06
2022-10-31T02:06:08.861Z,100497.72
2022-10-31T02:08:37.028Z,100506.06
2022-10-31T02:11:05.066Z,100499.22
2022-10-31T02:13:32.955Z,100497.72
2022-10-31T02:16:01.019Z,100498.56
2022-10-31T02:18:32.354Z,100495.59
2022-10-31T02:21:05.208Z,100494.00
2022-10-31T02:23:59.181Z,100498.66
2022-10-31T02:26:48.691Z,100496.72
2022-10-31T02:29:39.066Z,100495.28
2022-10-31T02:32:12.175Z,100495.22
2022-10-31T02:34:45.739Z,100496.88
2022-10-31T02:37:15.301Z,100488.22
2022-10-31T02:39:47.692Z,100498.25
2022-10-31T02:42:23.994Z,100501.94
2022-10-31T02:44:53.867Z,100507.34
2022-10-31T02:47:26.414Z,100506.72
2022-10-31T02:49:58.005Z,100500.38
2022-10-31T02:52:26.818Z,100494.84
2022-10-31T02:54:55.208Z,100489.69
2022-10-31T02:57:25.519Z,100492.22
2022-10-31T02:59:55.792Z,100496.81
2022-10-31T03:02:30.967Z,100501.09
2022-10-31T03:05:09.968Z,100496.63
2022-10-31T03:07:42.205Z,100505.69
2022-10-31T03:10:17.217Z,100500.59
2022-10-31T03:12:51.103Z,100504.94
2022-10-31T03:15:21.901Z,100500.56
2022-10-31T03:17:55.838Z,100499.22
2022-10-31T03:20:29.009Z,100489.06
2022-10-31T03:23:02.327Z,100480.09
2022-10-31T03:25:31.085Z,100477.63
2022-10-31T03:28:01.232Z,100477.44
2022-10-31T03:30:31.310Z,100483.22
2022-10-31T03:33:04.343Z,100482.56
2022-10-31T03:35:34.236Z,100487.50
2022-10-31T03:38:07.914Z,100481.00
2022-10-31T03:40:37.931Z,100477.31
2022-10-31T03:43:09.928Z,100480.44
2022-10-31T03:45:41.829Z,100482.78
2022-10-31T03:48:11.078Z,100477.75
2022-10-31T03:50:42.385Z,100471.72
2022-10-31T03:53:12.553Z,100471.81
2022-10-31T03:55:44.559Z,100472.19
2022-10-31T03:58:14.035Z,100469.78
2022-10-31T04:00:44.474Z,100471.44
2022-10-31T04:03:14.900Z,100473.03
2022-10-31T04:05:47.834Z,100474.59
2022-10-31T04:08:19.116Z,100470.06
2022-10-31T04:10:49.034Z,100475.81
2022-10-31T04:16:00.942Z,100478.34
2022-10-31T04:18:31.277Z,100473.41
2022-10-31T04:21:02.871Z,100476.00
2022-10-31T04:23:30.922Z,100468.22
2022-10-31T04:26:00.292Z,100469.28
2022-10-31T04:28:28.130Z,100475.63
2022-10-31T04:30:55.867Z,100475.25
2022-10-31T04:33:23.996Z,100477.75
2022-10-31T04:35:53.210Z,100490.63
2022-10-31T04:38:20.917Z,100493.78
2022-10-31T04:40:50.442Z,100484.91
2022-10-31T04:43:38.466Z,100477.41
2022-10-31T04:46:06.527Z,100478.88
2022-10-31T04:48:34.830Z,100466.97
2022-10-31T04:51:04.886Z,100475.97
2022-10-31T04:53:33.504Z,100470.47
2022-10-31T04:56:27.687Z,100460.13
2022-10-31T04:59:05.839Z,100457.72
2022-10-31T05:01:48.334Z,100466.78
2022-10-31T05:04:19.094Z,100465.22
2022-10-31T05:06:49.116Z,100464.25
2022-10-31T05:09:16.929Z,100449.34
2022-10-31T05:11:45.750Z,100450.75
2022-10-31T05:14:46.122Z,100458.38
2022-10-31T05:17:48.431Z,100454.94
2022-10-31T05:20:51.332Z,100452.72
2022-10-31T05:23:30.272Z,100441.56
2022-10-31T05:25:57.978Z,100444.13
2022-10-31T05:28:26.109Z,100454.44
2022-10-31T05:30:54.922Z,100459.09
2022-10-31T05:33:23.033Z,100464.69
2022-10-31T05:36:11.094Z,100465.97
2022-10-31T05:38:45.818Z,100477.13
2022-10-31T05:41:22.442Z,100487.13
2022-10-31T05:43:50.498Z,100478.41
2022-10-31T05:46:22.622Z,100485.94
2022-10-31T05:49:09.010Z,100482.03
2022-10-31T05:52:06.144Z,100473.94
2022-10-31T05:54:42.739Z,100470.78
2022-10-31T05:57:11.227Z,100470.59
2022-10-31T05:59:39.069Z,100477.00
2022-10-31T06:02:07.021Z,100480.53
2022-10-31T06:04:53.233Z,100472.66
2022-10-31T06:07:21.512Z,100476.53
2022-10-31T06:09:50.843Z,100467.66
2022-10-31T06:12:21.645Z,100472.75
2022-10-31T06:15:08.831Z,100470.88
2022-10-31T06:17:38.619Z,100465.78
2022-10-31T06:20:25.554Z,100461.13
2022-10-31T06:23:00.153Z,100468.38
2022-10-31T06:25:29.831Z,100473.69
2022-10-31T06:27:58.344Z,100474.88
2022-10-31T06:30:33.481Z,100467.53
2022-10-31T06:33:06.509Z,100467.06
2022-10-31T06:35:39.053Z,100461.22
2022-10-31T06:38:07.456Z,100466.59
2022-10-31T06:40:41.873Z,100476.34
2022-10-31T06:43:30.757Z,100481.38
2022-10-31T06:46:18.682Z,100478.22
2022-10-31T06:49:05.411Z,100485.78
2022-10-31T06:51:43.803Z,100490.13
2022-10-31T06:54:12.185Z,100488.00
2022-10-31T06:56:41.681Z,100490.44
2022-10-31T06:59:09.908Z,100491.41
2022-10-31T07:02:11.036Z,100482.13
2022-10-31T07:04:40.733Z,100476.06
2022-10-31T07:07:10.079Z,100477.22
2022-10-31T07:09:39.671Z,100482.34
2022-10-31T07:12:10.560Z,100487.56
2022-10-31T07:14:41.929Z,100483.28
2022-10-31T07:17:09.893Z,100486.03
2022-10-31T07:19:45.777Z,100493.81
2022-10-31T07:22:17.655Z,100492.66
2022-10-31T07:24:46.729Z,100494.66
2022-10-31T07:27:43.018Z,100504.22
2022-10-31T07:30:14.908Z,100512.84
2022-10-31T07:32:44.193Z,100514.16
2022-10-31T07:35:15.715Z,100507.34
2022-10-31T07:38:00.998Z,100508.41
2022-10-31T07:40:29.343Z,100512.69
2022-10-31T07:43:00.159Z,100510.44
2022-10-31T07:45:51.116Z,100510.28
2022-10-31T07:48:58.159Z,100514.88
2022-10-31T07:51:55.408Z,100508.78
2022-10-31T07:54:37.043Z,100511.19
2022-10-31T07:57:07.468Z,100512.13
2022-10-31T07:59:37.263Z,100511.84
2022-10-31T08:02:07.407Z,100521.22
2022-10-31T08:04:44.321Z,100515.28
2022-10-31T08:07:31.053Z,100512.50
2022-10-31T08:10:05.944Z,100513.34
2022-10-31T08:12:35.525Z,100511.41
2022-10-31T08:15:07.716Z,100505.97
2022-10-31T08:17:38.306Z,100505.56
2022-10-31T08:20:06.776Z,100501.34
2022-10-31T08:22:43.683Z,100500.84
2022-10-31T08:25:12.392Z,100503.88
2022-10-31T08:27:40.604Z,100501.00
2022-10-31T08:30:18.222Z,100501.69
2022-10-31T08:33:02.445Z,100495.81
2022-10-31T08:35:49.483Z,100506.19
2022-10-31T08:38:40.424Z,100507.44
2022-10-31T08:41:10.812Z,100504.19
2022-10-31T08:43:38.784Z,100502.28
2022-10-31T08:46:08.561Z,100504.59
2022-10-31T08:48:37.562Z,100500.78
2022-10-31T08:51:07.234Z,100496.97
2022-10-31T08:53:35.027Z,100501.16
2022-10-31T08:56:25.519Z,100497.09
2022-10-31T08:58:54.722Z,100498.13
2022-10-31T09:01:34.031Z,100491.31
2022-10-31T09:04:03.043Z,100492.09
2022-10-31T09:06:30.907Z,100497.78
2022-10-31T09:09:00.914Z,100496.72
2022-10-31T09:11:30.942Z,100484.56
2022-10-31T09:14:17.046Z,100483.06
2022-10-31T09:17:12.613Z,100487.28
2022-10-31T09:19:56.728Z,100486.56
2022-10-31T09:22:27.902Z,100480.50
2022-10-31T09:24:56.205Z,100487.69
2022-10-31T09:27:24.444Z,100486.44
2022-10-31T09:29:55.786Z,100487.25
2022-10-31T09:32:25.512Z,100479.44
2022-10-31T09:34:53.474Z,100480.69
2022-10-31T09:37:22.042Z,100477.34
2022-10-31T09:39:51.164Z,100480.75
2022-10-31T09:42:39.176Z,100487.50
2022-10-31T09:45:18.651Z,100476.03
2022-10-31T09:48:01.692Z,100481.34
2022-10-31T09:50:36.457Z,100486.78
2022-10-31T09:53:25.023Z,100482.16
2022-10-31T09:55:53.110Z,100483.31
2022-10-31T09:58:22.277Z,100476.75
2022-10-31T10:00:50.606Z,100471.97
2022-10-31T10:03:27.894Z,100470.00
2022-10-31T10:05:59.551Z,100466.81
2022-10-31T10:08:41.748Z,100468.44
2022-10-31T10:11:35.766Z,100467.06
2022-10-31T10:14:24.025Z,100460.16
2022-10-31T10:17:01.110Z,100452.94
2022-10-31T10:19:54.911Z,100454.06
2022-10-31T10:22:26.454Z,100450.09
2022-10-31T10:25:02.666Z,100458.63
2022-10-31T10:27:36.170Z,100454.13
2022-10-31T10:30:07.536Z,100464.66
2022-10-31T10:32:50.877Z,100461.28
2022-10-31T10:35:25.243Z,100447.75
2022-10-31T10:37:55.042Z,100447.59
2022-10-31T10:40:25.162Z,100435.13
2022-10-31T10:43:15.526Z,100437.25
2022-10-31T10:46:01.662Z,100430.94
2022-10-31T10:48:35.125Z,100431.34
2022-10-31T10:51:05.923Z,100429.28
2022-10-31T10:54:00.537Z,100436.09
2022-10-31T10:56:35.836Z,100432.06
2022-10-31T10:59:04.475Z,100432.97
2022-10-31T11:01:32.574Z,100429.41
2022-10-31T11:04:00.541Z,100429.22
2022-10-31T11:06:29.945Z,100429.25
2022-10-31T11:08:57.849Z,100426.81
2022-10-31T11:11:29.044Z,100425.19
2022-10-31T11:14:00.014Z,100418.41
2022-10-31T11:16:36.760Z,100418.91
2022-10-31T11:19:10.153Z,100423.69
2022-10-31T11:21:39.756Z,100421.44
2022-10-31T11:24:14.628Z,100417.31
2022-10-31T11:26:43.616Z,100407.63
2022-10-31T11:29:15.560Z,100410.09
2022-10-31T11:31:44.231Z,100399.78
2022-10-31T11:34:22.750Z,100388.31
2022-10-31T11:36:52.136Z,100378.09
2022-10-31T11:39:24.271Z,100374.56
2022-10-31T11:41:52.911Z,100377.88
2022-10-31T11:44:22.130Z,100374.78
2022-10-31T11:46:51.061Z,100366.38
2022-10-31T11:49:31.364Z,100370.88
2022-10-31T11:52:02.886Z,100359.19
2022-10-31T11:54:33.247Z,100359.50
2022-10-31T11:57:01.554Z,100363.78
2022-10-31T11:59:30.697Z,100356.47
2022-10-31T12:02:00.831Z,100365.44
2022-10-31T12:04:37.582Z,100340.31
2022-10-31T12:07:06.941Z,100349.91
2022-10-31T12:09:35.988Z,100348.16
2022-10-31T12:12:20.374Z,100345.25
2022-10-31T12:14:54.077Z,100337.25
2022-10-31T12:17:26.033Z,100332.47
2022-10-31T12:20:00.748Z,100333.56
2022-10-31T12:22:33.499Z,100332.63
2022-10-31T12:25:13.722Z,100337.38
2022-10-31T12:27:56.429Z,100333.03
2022-10-31T12:30:28.485Z,100336.94
2022-10-31T12:33:14.196Z,100338.41
2022-10-31T12:35:47.311Z,100331.19
2022-10-31T12:38:27.344Z,100330.81
2022-10-31T12:41:12.839Z,100309.84
2022-10-31T12:43:47.462Z,100303.94
2022-10-31T12:46:21.519Z,100293.34
2022-10-31T12:49:01.105Z,100276.53
2022-10-31T12:51:35.683Z,100264.72
2022-10-31T12:54:12.529Z,100269.97
2022-10-31T12:56:52.969Z,100264.66
2022-10-31T12:59:23.887Z,100248.81
2022-10-31T13:01:53.454Z,100247.19
2022-10-31T13:04:30.262Z,100243.59
2022-10-31T13:07:00.862Z,100238.81
2022-10-31T13:09:35.738Z,100243.81
2022-10-31T13:12:06.728Z,100238.69
2022-10-31T13:14:36.684Z,100232.63
2022-10-31T13:17:05.064Z,100225.41
2022-10-31T13:19:36.773Z,100229.47
2022-10-31T13:22:08.869Z,100228.28
2022-10-31T13:24:41.625Z,100222.50
2022-10-31T13:27:15.047Z,100220.88
2022-10-31T13:29:46.348Z,100215.91
2022-10-31T13:32:14.060Z,100206.16
2022-10-31T13:34:44.081Z,100209.72
2022-10-31T13:37:19.900Z,100205.41
2022-10-31T13:39:53.664Z,100210.44
2022-10-31T13:42:23.455Z,100206.25
2022-10-31T13:44:51.437Z,100209.50
2022-10-31T13:47:23.617Z,100202.59
2022-10-31T13:49:52.183Z,100193.91
2022-10-31T13:52:25.826Z,100183.19
2022-10-31T13:54:58.274Z,100180.88
2022-10-31T13:57:34.413Z,100181.72
2022-10-31T14:00:04.106Z,100173.97
2022-10-31T14:02:47.185Z,100164.06
2022-10-31T14:05:24.115Z,100157.78
2022-10-31T14:07:52.162Z,100154.03
2022-10-31T14:10:28.060Z,100153.69
2022-10-31T14:13:04.800Z,100156.16
2022-10-31T14:15:33.559Z,100142.91
2022-10-31T14:18:05.247Z,100138.16
2022-10-31T14:20:42.253Z,100137.25
2022-10-31T14:23:14.870Z,100141.44
2022-10-31T14:25:44.680Z,100153.94
2022-10-31T14:28:23.284Z,100194.22
2022-10-31T14:30:55.299Z,100209.75
2022-10-31T14:33:24.264Z,100220.16
2022-10-31T14:35:56.639Z,100208.25
2022-10-31T14:38:33.951Z,100206.56
2022-10-31T14:41:15.730Z,100210.00
2022-10-31T14:43:52.735Z,100212.53
2022-10-31T14:46:28.865Z,100208.00
2022-10-31T14:49:06.979Z,100211.91
2022-10-31T14:51:37.762Z,100192.72
2022-10-31T14:54:07.605Z,100195.47
2022-10-31T14:56:38.029Z,100193.97
2022-10-31T14:59:11.020Z,100187.88
2022-10-31T15:01:40.736Z,100178.59
2022-10-31T15:04:23.119Z,100177.78
2022-10-31T15:06:56.252Z,100160.91
2022-10-31T15:09:25.082Z,100157.28
2022-10-31T15:11:55.040Z,100151.94
2022-10-31T15:14:24.665Z,100148.09
2022-10-31T15:16:53.389Z,100156.94
2022-10-31T15:19:24.066Z,100149.78
2022-10-31T15:21:53.453Z,100141.25
2022-10-31T15:24:22.908Z,100144.84
2022-10-31T15:26:52.821Z,100143.13
2022-10-31T15:29:23.778Z,100139.13
2022-10-31T15:31:52.160Z,100134.84
2022-10-31T15:34:25.488Z,100130.22
2022-10-31T15:36:55.437Z,100127.56
2022-10-31T15:39:24.215Z,100130.22
2022-10-31T15:41:54.770Z,100126.66
2022-10-31T15:44:27.118Z,100119.97
2022-10-31T15:46:59.898Z,100112.47
2022-10-31T15:49:39.032Z,100115.63
2022-10-31T15:52:13.790Z,100111.25
2022-10-31T15:54:47.303Z,100115.94
2022-10-31T15:57:16.603Z,100119.00
2022-10-31T15:59:50.192Z,100103.19
2022-10-31T16:02:21.043Z,100096.53
2022-10-31T16:04:54.617Z,100074.75
2022-10-31T16:07:23.880Z,100067.25
2022-10-31T16:09:53.344Z,100063.84
2022-10-31T16:12:22.754Z,100052.72
2022-10-31T16:14:52.726Z,100057.59
2022-10-31T16:17:23.124Z,100030.28
2022-10-31T16:19:53.045Z,100008.22
2022-10-31T16:22:26.685Z,99972.28
2022-10-31T16:24:59.852Z,99932.88
2022-10-31T16:27:30.009Z,99962.13
2022-10-31T16:30:02.654Z,99961.16
2022-10-31T16:32:32.593Z,99938.94
2022-10-31T16:35:01.826Z,99902.13
2022-10-31T16:37:29.390Z,99883.38
2022-10-31T16:39:57.310Z,99900.34
2022-10-31T16:42:25.615Z,99933.84
2022-10-31T16:44:53.626Z,99961.16
2022-10-31T16:47:25.979Z,99962.94
2022-10-31T16:50:00.933Z,99974.38
2022-10-31T16:52:37.953Z,99976.03
2022-10-31T16:55:14.167Z,99986.06
2022-10-31T16:57:42.970Z,99988.72
2022-10-31T17:00:14.919Z,99987.38
2022-10-31T17:02:44.288Z,99984.59
2022-10-31T17:05:14.584Z,99985.84
2022-10-31T17:07:43.205Z,99998.91
2022-10-31T17:10:11.585Z,100013.38
2022-10-31T17:12:39.851Z,100025.63
2022-10-31T17:15:08.843Z,100025.75
2022-10-31T17:17:38.850Z,100034.78
2022-10-31T17:20:17.773Z,100043.19
2022-10-31T17:22:46.336Z,100056.81
2022-10-31T17:25:16.491Z,100056.13
2022-10-31T17:27:47.284Z,100040.84
2022-10-31T17:30:16.725Z,100033.91
2022-10-31T17:32:44.425Z,99988.13
2022-10-31T17:35:14.511Z,100010.22
2022-10-31T17:37:43.276Z,100035.03
2022-10-31T17:40:11.925Z,100053.00
2022-10-31T17:42:39.786Z,100024.38
2022-10-31T17:45:08.572Z,100023.97
2022-10-31T17:47:36.608Z,99993.59
2022-10-31T17:50:05.589Z,99974.41
2022-10-31T17:52:34.595Z,99959.97
2022-10-31T17:55:02.355Z,99969.16
2022-10-31T17:57:33.602Z,99977.25
2022-10-31T18:00:01.367Z,99968.47
2022-10-31T18:02:33.440Z,99970.44
2022-10-31T18:05:02.543Z,99972.19
2022-10-31T18:07:30.392Z,99954.22
2022-10-31T18:09:59.722Z,99952.75
2022-10-31T18:12:28.089Z,99942.03
2022-10-31T18:14:55.831Z,99951.25
2022-10-31T18:17:23.494Z,99951.66
2022-10-31T18:19:51.477Z,99952.81
2022-10-31T18:22:21.448Z,99952.38
2022-10-31T18:24:49.406Z,99956.50
2022-10-31T18:27:18.560Z,99963.84
2022-10-31T18:29:46.685Z,99952.94
2022-10-31T18:32:14.828Z,99944.63
2022-10-31T18:34:42.906Z,99938.41
2022-10-31T18:37:10.791Z,99928.03
2022-10-31T18:39:39.164Z,99941.81
2022-10-31T18:42:06.859Z,99948.53
2022-10-31T18:44:36.243Z,99958.34
2022-10-31T18:47:03.984Z,99965.38
2022-10-31T18:49:32.747Z,99963.22
2022-10-31T18:52:01.796Z,99972.06
2022-10-31T18:54:30.466Z,99976.38
2022-10-31T18:56:58.144Z,99974.09
2022-10-31T18:59:25.839Z,99980.84
2022-10-31T19:01:55.020Z,99987.84
2022-10-31T19:04:23.026Z,99994.50
2022-10-31T19:06:50.880Z,99995.34
2022-10-31T19:09:18.905Z,99995.56
2022-10-31T19:11:46.977Z,99983.81
2022-10-31T19:14:14.982Z,99990.47
2022-10-31T19:16:43.259Z,99996.69
2022-10-31T19:19:14.608Z,99993.34
2022-10-31T19:21:42.718Z,99999.63
2022-10-31T19:24:11.084Z,99996.19
2022-10-31T19:26:40.270Z,100009.09
2022-10-31T19:29:08.143Z,100001.34
2022-10-31T19:31:35.913Z,99999.47
2022-10-31T19:34:03.679Z,100014.88
2022-10-31T19:36:32.785Z,100016.66
2022-10-31T19:39:01.242Z,100009.19
2022-10-31T19:41:30.009Z,100006.22
2022-10-31T19:43:59.906Z,100017.19
2022-10-31T19:49:16.557Z,100006.47
2022-10-31T19:51:45.639Z,100004.44
2022-10-31T19:54:13.454Z,100006.53
2022-10-31T19:56:41.186Z,100011.38
2022-10-31T19:59:09.153Z,100010.56
2022-10-31T20:01:37.090Z,100004.44
2022-10-31T20:04:05.289Z,100019.69
2022-10-31T20:06:34.115Z,100014.38
2022-10-31T20:09:03.985Z,100022.06
2022-10-31T20:11:31.773Z,100022.28
2022-10-31T20:14:00.214Z,100004.19
2022-10-31T20:16:28.630Z,100021.16
2022-10-31T20:18:56.896Z,100022.06
2022-10-31T20:21:26.595Z,100004.59
2022-10-31T20:23:56.030Z,100002.59
2022-10-31T20:26:25.371Z,100006.19
2022-10-31T20:28:53.430Z,100007.88
2022-10-31T20:31:22.872Z,100006.31
2022-10-31T20:33:51.170Z,100007.16
2022-10-31T20:36:21.017Z,100000.59
2022-10-31T20:38:48.844Z,99995.75
2022-10-31T20:41:18.075Z,99990.22
2022-10-31T20:43:47.608Z,99977.44
2022-10-31T20:46:16.199Z,99984.94
2022-10-31T20:48:43.943Z,99961.97
2022-10-31T20:51:13.817Z,99978.41
2022-10-31T20:53:41.856Z,99966.53
2022-10-31T20:56:10.463Z,99977.81
2022-10-31T20:58:38.917Z,99986.22
2022-10-31T21:01:12.056Z,99977.91
2022-10-31T21:03:40.540Z,99979.34
2022-10-31T21:06:10.008Z,99978.63
2022-10-31T21:08:38.179Z,99975.78
2022-10-31T21:11:08.427Z,99978.25
2022-10-31T21:13:40.639Z,99976.28
2022-10-31T21:16:11.188Z,99978.28
2022-10-31T21:18:40.835Z,99976.66
2022-10-31T21:21:08.803Z,99960.88
2022-10-31T21:23:36.895Z,99956.50
2022-10-31T21:26:08.391Z,99958.63
2022-10-31T21:28:36.463Z,99958.97
2022-10-31T21:31:07.393Z,99953.16
2022-10-31T21:33:38.035Z,99956.25
2022-10-31T21:36:06.419Z,99956.75
2022-10-31T21:38:35.697Z,99952.72
2022-10-31T21:41:04.220Z,99950.94
2022-10-31T21:43:32.498Z,99950.44
2022-10-31T21:46:03.741Z,99956.00
2022-10-31T21:48:31.542Z,99946.91
2022-10-31T21:51:03.507Z,99943.25
2022-10-31T21:53:49.100Z,99941.56
2022-10-31T21:56:16.740Z,99925.94
2022-10-31T21:58:44.718Z,99914.69
2022-10-31T22:01:12.535Z,99925.94
2022-10-31T22:03:43.077Z,99929.59
2022-10-31T22:06:13.026Z,99932.44
2022-10-31T22:08:41.772Z,99914.31
2022-10-31T22:11:10.391Z,99907.22
2022-10-31T22:13:38.674Z,99900.13
2022-10-31T22:16:08.235Z,99905.94
2022-10-31T22:18:36.201Z,99905.28
2022-10-31T22:21:04.855Z,99908.91
2022-10-31T22:23:36.550Z,99912.31
2022-10-31T22:26:07.788Z,99925.53
2022-10-31T22:28:37.166Z,99921.25
2022-10-31T22:31:08.395Z,99926.50
2022-10-31T22:33:36.639Z,99925.25
2022-10-31T22:36:14.207Z,99925.38
2022-10-31T22:38:44.119Z,99924.66
2022-10-31T22:41:12.714Z,99935.34
2022-10-31T22:43:41.071Z,99926.06
2022-10-31T22:46:12.069Z,99939.81
2022-10-31T22:48:41.141Z,99932.09
2022-10-31T22:51:09.613Z,99937.25
2022-10-31T22:53:38.609Z,99935.16
2022-10-31T22:56:09.068Z,99924.78
2022-10-31T22:58:37.346Z,99931.47
2022-10-31T23:01:07.914Z,99929.75
2022-10-31T23:03:36.034Z,99926.91
2022-10-31T23:06:04.791Z,99932.22
2022-10-31T23:08:33.831Z,99935.88
2022-10-31T23:11:02.293Z,99923.88
2022-10-31T23:13:49.461Z,99924.84
2022-10-31T23:16:17.457Z,99923.75
2022-10-31T23:18:49.921Z,99926.81
2022-10-31T23:21:32.657Z,99927.50
2022-10-31T23:24:00.830Z,99917.50
2022-10-31T23:26:46.171Z,99933.19
2022-10-31T23:29:15.612Z,99941.22
2022-10-31T23:31:43.565Z,99946.38
2022-10-31T23:34:11.775Z,99943.25
2022-10-31T23:36:39.786Z,99942.03
2022-10-31T23:39:07.890Z,99940.94
2022-10-31T23:41:36.353Z,99941.78
2022-10-31T23:44:05.706Z,99947.66
2022-10-31T23:46:34.809Z,99935.66
2022-10-31T23:49:02.633Z,99939.16
2022-10-31T23:51:30.289Z,99943.34
2022-10-31T23:53:58.144Z,99948.94
2022-10-31T23:56:25.953Z,99933.47
2022-10-31T23:58:54.821Z,99929.63
